MSC Luisa — H9XU — position and weather

sailwx.info

Track history (hours):
 
Tides and Currents Weather Stations Pressure Air Temp Water Temp Dewpoint Dewpoint Depression Visibility Wind Speed Wind Dir Waves Ship Positions

MSC Luisa

Last reported at 2017-Jul-19 09:02 UTC. Time now 2017-Jul-23 04:42 UTC.
Position S 24°56' W 046°43'.

Length 300 m; draft 9.1 m.

Type: Ship. MMSI: 355308000.

Date/timePositionNaut miles runAvg speedWind from/ knotsBaromVisibWave heightAir tempDewpointWater temp
2017-Jul-19 09:02S 24°56' W 046°43'718.7
2017-Jul-19 08:39S 24°50' W 046°40'318.8
2017-Jul-19 08:30S 24°47' W 046°39'918.6
2017-Jul-19 08:00S 24°39' W 046°34'918.7
2017-Jul-19 07:30S 24°30' W 046°30'1019.0
2017-Jul-19 07:00S 24°21' W 046°27'1019.2
2017-Jul-19 06:30S 24°12' W 046°25'918.5
2017-Jul-19 06:00S 24°03' W 046°21'5 9.3
2017-Jul-19 05:31S 23°60' W 046°18'5 7.4
2017-Jul-19 04:52S 23°55' W 046°20'1 0.5
2017-Jul-19 03:35S 23°55' W 046°21'0 0.0
2017-Jul-19 03:17S 23°55' W 046°21'0 0.0
2017-Jul-18 18:53S 23°55' W 046°21'0 0.0
2017-Jul-18 16:11S 23°55' W 046°21'0 0.0
2017-Jul-18 15:53S 23°55' W 046°21'0 0.0
2017-Jul-18 15:11S 23°55' W 046°21'0 0.0
2017-Jul-18 14:41S 23°55' W 046°21'0 0.0
2017-Jul-18 13:59S 23°55' W 046°21'0 0.0
2017-Jul-18 09:11S 23°55' W 046°21'0 0.1
2017-Jul-18 08:53S 23°55' W 046°21'0 0.0
2017-Jul-18 08:29S 23°55' W 046°21'0 0.0
2017-Jul-18 07:59S 23°55' W 046°21'0 0.0
2017-Jul-17 19:06S 23°55' W 046°21'0 0.0
2017-Jul-17 18:08S 23°55' W 046°21'0 0.7
2017-Jul-17 17:41S 23°55' W 046°21'2 3.9
2017-Jul-17 17:04S 23°57' W 046°19'1 8.6
2017-Jul-17 16:56S 23°58' W 046°18'2 5.3
2017-Jul-17 16:30S 23°60' W 046°19'510.1
2017-Jul-17 16:00S 24°04' W 046°22'3 4.8
2017-Jul-17 15:26S 24°07' W 046°21'0 0.0
2017-Jul-17 14:56S 24°07' W 046°21'0 0.0
2017-Jul-17 14:20S 24°07' W 046°21'0 0.1
2017-Jul-17 13:56S 24°07' W 046°21'0 0.1
2017-Jul-17 13:20S 24°07' W 046°21'0 0.1
2017-Jul-17 12:56S 24°07' W 046°21'0 0.0
2017-Jul-17 12:20S 24°07' W 046°21'0 0.0
2017-Jul-17 11:56S 24°07' W 046°21'0 0.0
2017-Jul-17 11:20S 24°07' W 046°21'0 0.0
2017-Jul-17 10:56S 24°07' W 046°21'0 0.0
2017-Jul-17 10:26S 24°07' W 046°21'0 0.0
2017-Jul-17 09:56S 24°07' W 046°21'0 0.0
2017-Jul-17 09:26S 24°07' W 046°21'0 0.0
2017-Jul-17 08:56S 24°07' W 046°21'0 0.0
2017-Jul-17 08:26S 24°07' W 046°21'0 0.0
2017-Jul-17 07:50S 24°07' W 046°21'0 0.0
2017-Jul-17 07:26S 24°07' W 046°21'0 0.0
2017-Jul-17 06:50S 24°07' W 046°21'0 0.0
2017-Jul-17 06:14S 24°07' W 046°21'0 0.0
2017-Jul-17 05:56S 24°07' W 046°21'0 0.0
2017-Jul-17 05:26S 24°07' W 046°21'0 0.0
2017-Jul-17 04:50S 24°07' W 046°21'0 0.0
2017-Jul-17 04:14S 24°07' W 046°21'0 0.0
2017-Jul-17 03:56S 24°07' W 046°21'0 0.0
2017-Jul-17 03:20S 24°07' W 046°21'0 0.0
2017-Jul-17 02:56S 24°07' W 046°21'1 1.8
2017-Jul-17 02:30S 24°08' W 046°22'4 8.1
2017-Jul-17 02:00S 24°11' W 046°23'917.5
2017-Jul-17 01:30S 24°19' W 046°18'918.3
2017-Jul-17 01:00S 24°24' W 046°10'918.8
2017-Jul-17 00:30S 24°24' W 045°59'1019.2
2017-Jul-17 00:00S 24°22' W 045°49'1019.2
2017-Jul-16 23:30S 24°21' W 045°38'1019.2
2017-Jul-16 23:00S 24°19' W 045°28'1019.2
2017-Jul-16 22:30S 24°16' W 045°18'1019.3
2017-Jul-16 22:00S 24°12' W 045°08'  
Track history (hours):
 
Tides and Currents Weather Stations Pressure Air Temp Water Temp Dewpoint Dewpoint Depression Visibility Wind Speed Wind Dir Waves Ship Positions

MSC Luisa

Last reported at 2017-Jul-19 09:02 UTC. Time now 2017-Jul-23 04:42 UTC.
Position S 24°56' W 046°43'.

Length 300 m; draft 9.1 m.

Type: Ship. MMSI: 355308000.

Date/timePositionNaut miles runAvg speedWind from/ knotsBaromVisibWave heightAir tempDewpointWater temp
2017-Jul-19 09:02S 24°56' W 046°43'718.7
2017-Jul-19 08:39S 24°50' W 046°40'318.8
2017-Jul-19 08:30S 24°47' W 046°39'918.6
2017-Jul-19 08:00S 24°39' W 046°34'918.7
2017-Jul-19 07:30S 24°30' W 046°30'1019.0
2017-Jul-19 07:00S 24°21' W 046°27'1019.2
2017-Jul-19 06:30S 24°12' W 046°25'918.5
2017-Jul-19 06:00S 24°03' W 046°21'5 9.3
2017-Jul-19 05:31S 23°60' W 046°18'5 7.4
2017-Jul-19 04:52S 23°55' W 046°20'1 0.5
2017-Jul-19 03:35S 23°55' W 046°21'0 0.0
2017-Jul-19 03:17S 23°55' W 046°21'0 0.0
2017-Jul-18 18:53S 23°55' W 046°21'0 0.0
2017-Jul-18 16:11S 23°55' W 046°21'0 0.0
2017-Jul-18 15:53S 23°55' W 046°21'0 0.0
2017-Jul-18 15:11S 23°55' W 046°21'0 0.0
2017-Jul-18 14:41S 23°55' W 046°21'0 0.0
2017-Jul-18 13:59S 23°55' W 046°21'0 0.0
2017-Jul-18 09:11S 23°55' W 046°21'0 0.1
2017-Jul-18 08:53S 23°55' W 046°21'0 0.0
2017-Jul-18 08:29S 23°55' W 046°21'0 0.0
2017-Jul-18 07:59S 23°55' W 046°21'0 0.0
2017-Jul-17 19:06S 23°55' W 046°21'0 0.0
2017-Jul-17 18:08S 23°55' W 046°21'0 0.7
2017-Jul-17 17:41S 23°55' W 046°21'2 3.9
2017-Jul-17 17:04S 23°57' W 046°19'1 8.6
2017-Jul-17 16:56S 23°58' W 046°18'2 5.3
2017-Jul-17 16:30S 23°60' W 046°19'510.1
2017-Jul-17 16:00S 24°04' W 046°22'3 4.8
2017-Jul-17 15:26S 24°07' W 046°21'0 0.0
2017-Jul-17 14:56S 24°07' W 046°21'0 0.0
2017-Jul-17 14:20S 24°07' W 046°21'0 0.1
2017-Jul-17 13:56S 24°07' W 046°21'0 0.1
2017-Jul-17 13:20S 24°07' W 046°21'0 0.1
2017-Jul-17 12:56S 24°07' W 046°21'0 0.0
2017-Jul-17 12:20S 24°07' W 046°21'0 0.0
2017-Jul-17 11:56S 24°07' W 046°21'0 0.0
2017-Jul-17 11:20S 24°07' W 046°21'0 0.0
2017-Jul-17 10:56S 24°07' W 046°21'0 0.0
2017-Jul-17 10:26S 24°07' W 046°21'0 0.0
2017-Jul-17 09:56S 24°07' W 046°21'0 0.0
2017-Jul-17 09:26S 24°07' W 046°21'0 0.0
2017-Jul-17 08:56S 24°07' W 046°21'0 0.0
2017-Jul-17 08:26S 24°07' W 046°21'0 0.0
2017-Jul-17 07:50S 24°07' W 046°21'0 0.0
2017-Jul-17 07:26S 24°07' W 046°21'0 0.0
2017-Jul-17 06:50S 24°07' W 046°21'0 0.0
2017-Jul-17 06:14S 24°07' W 046°21'0 0.0
2017-Jul-17 05:56S 24°07' W 046°21'0 0.0
2017-Jul-17 05:26S 24°07' W 046°21'0 0.0
2017-Jul-17 04:50S 24°07' W 046°21'0 0.0
2017-Jul-17 04:14S 24°07' W 046°21'0 0.0
2017-Jul-17 03:56S 24°07' W 046°21'0 0.0
2017-Jul-17 03:20S 24°07' W 046°21'0 0.0
2017-Jul-17 02:56S 24°07' W 046°21'1 1.8
2017-Jul-17 02:30S 24°08' W 046°22'4 8.1
2017-Jul-17 02:00S 24°11' W 046°23'917.5
2017-Jul-17 01:30S 24°19' W 046°18'918.3
2017-Jul-17 01:00S 24°24' W 046°10'918.8
2017-Jul-17 00:30S 24°24' W 045°59'1019.2
2017-Jul-17 00:00S 24°22' W 045°49'1019.2
2017-Jul-16 23:30S 24°21' W 045°38'1019.2
2017-Jul-16 23:00S 24°19' W 045°28'1019.2
2017-Jul-16 22:30S 24°16' W 045°18'1019.3
2017-Jul-16 22:00S 24°12' W 045°08'  

Dump ship's entire track history